createdAt,value
2022-11-13T00:01:17.587Z,14.10
2022-11-13T00:03:45.517Z,14.10
2022-11-13T00:06:14.550Z,14.00
2022-11-13T00:08:43.001Z,13.90
2022-11-13T00:11:14.770Z,13.90
2022-11-13T00:13:43.786Z,13.80
2022-11-13T00:16:13.550Z,13.70
2022-11-13T00:18:41.381Z,13.70
2022-11-13T00:21:10.614Z,13.70
2022-11-13T00:23:38.891Z,13.60
2022-11-13T00:26:07.881Z,13.60
2022-11-13T00:28:37.138Z,13.60
2022-11-13T00:31:06.709Z,13.60
2022-11-13T00:36:26.238Z,13.50
2022-11-13T00:38:55.027Z,13.50
2022-11-13T00:41:22.918Z,13.40
2022-11-13T00:43:52.489Z,13.40
2022-11-13T00:46:20.987Z,13.30
2022-11-13T00:48:48.764Z,13.20
2022-11-13T00:51:16.611Z,13.10
2022-11-13T00:53:44.374Z,13.10
2022-11-13T00:56:12.415Z,13.10
2022-11-13T00:58:40.223Z,13.10
2022-11-13T01:01:11.916Z,13.00
2022-11-13T01:03:40.053Z,12.90
2022-11-13T01:06:12.868Z,12.90
2022-11-13T01:08:41.228Z,12.80
2022-11-13T01:11:10.723Z,12.60
2022-11-13T01:13:38.850Z,12.50
2022-11-13T01:16:10.251Z,12.60
2022-11-13T01:18:38.496Z,12.60
2022-11-13T01:21:07.875Z,12.70
2022-11-13T01:23:36.302Z,12.70
2022-11-13T01:26:09.541Z,12.80
2022-11-13T01:28:37.473Z,12.80
2022-11-13T01:31:07.201Z,12.80
2022-11-13T01:33:36.313Z,12.80
2022-11-13T01:36:06.503Z,12.80
2022-11-13T01:38:36.865Z,12.80
2022-11-13T01:41:05.724Z,12.80
2022-11-13T01:43:35.138Z,12.70
2022-11-13T01:46:21.064Z,12.70
2022-11-13T01:48:53.734Z,12.60
2022-11-13T01:51:28.036Z,12.60
2022-11-13T01:53:56.767Z,12.60
2022-11-13T01:56:25.006Z,12.60
2022-11-13T01:58:55.761Z,12.60
2022-11-13T02:01:23.747Z,12.60
2022-11-13T02:03:52.931Z,12.60
2022-11-13T02:06:21.451Z,12.60
2022-11-13T02:08:51.711Z,12.60
2022-11-13T02:11:20.962Z,12.50
2022-11-13T02:13:49.065Z,12.40
2022-11-13T02:16:18.636Z,12.40
2022-11-13T02:18:46.715Z,12.30
2022-11-13T02:21:26.613Z,12.30
2022-11-13T02:24:01.172Z,12.30
2022-11-13T02:26:32.436Z,12.20
2022-11-13T02:29:00.205Z,12.20
2022-11-13T02:31:28.010Z,12.20
2022-11-13T02:33:55.978Z,12.20
2022-11-13T02:36:26.335Z,12.20
2022-11-13T02:38:56.018Z,12.20
2022-11-13T02:41:23.746Z,12.20
2022-11-13T02:43:52.909Z,12.20
2022-11-13T02:46:20.705Z,12.10
2022-11-13T02:48:48.452Z,12.10
2022-11-13T02:51:16.240Z,12.00
2022-11-13T02:53:44.063Z,12.00
2022-11-13T02:56:11.833Z,11.90
2022-11-13T02:58:39.610Z,11.90
2022-11-13T03:01:08.741Z,11.80
2022-11-13T03:06:24.624Z,11.70
2022-11-13T03:08:52.435Z,11.70
2022-11-13T03:11:20.179Z,11.70
2022-11-13T03:13:47.963Z,11.70
2022-11-13T03:16:17.941Z,11.70
2022-11-13T03:18:45.782Z,11.60
2022-11-13T03:21:15.249Z,11.60
2022-11-13T03:23:44.914Z,11.60
2022-11-13T03:26:18.514Z,11.50
2022-11-13T03:28:46.561Z,11.50
2022-11-13T03:31:14.537Z,11.40
2022-11-13T03:33:43.911Z,11.40
2022-11-13T03:36:11.676Z,11.40
2022-11-13T03:38:39.463Z,11.40
2022-11-13T03:41:07.248Z,11.40
2022-11-13T03:43:34.998Z,11.40
2022-11-13T03:46:02.811Z,11.40
2022-11-13T03:48:30.887Z,11.30
2022-11-13T03:51:00.201Z,11.30
2022-11-13T03:53:27.964Z,11.30
2022-11-13T03:55:55.723Z,11.30
2022-11-13T03:58:23.521Z,11.30
2022-11-13T04:00:52.123Z,11.30
2022-11-13T04:03:20.044Z,11.30
2022-11-13T04:05:49.354Z,11.20
2022-11-13T04:08:19.175Z,11.10
2022-11-13T04:10:47.377Z,11.10
2022-11-13T04:13:15.187Z,11.10
2022-11-13T04:15:43.073Z,11.00
2022-11-13T04:18:11.652Z,11.00
2022-11-13T04:20:39.442Z,11.00
2022-11-13T04:23:12.477Z,11.00
2022-11-13T04:25:41.625Z,11.00
2022-11-13T04:28:10.496Z,11.00
2022-11-13T04:30:38.456Z,10.90
2022-11-13T04:33:06.930Z,10.90
2022-11-13T04:35:35.442Z,10.90
2022-11-13T04:38:03.195Z,10.80
2022-11-13T04:40:31.009Z,10.80
2022-11-13T04:42:59.163Z,10.80
2022-11-13T04:45:27.585Z,10.80
2022-11-13T04:47:55.634Z,10.80
2022-11-13T04:50:23.563Z,10.80
2022-11-13T04:52:51.395Z,10.80
2022-11-13T04:55:19.381Z,10.80
2022-11-13T04:57:47.269Z,10.70
2022-11-13T05:00:17.663Z,10.80
2022-11-13T05:02:45.459Z,10.80
2022-11-13T05:05:13.189Z,10.80
2022-11-13T05:07:42.438Z,10.80
2022-11-13T05:10:10.541Z,10.70
2022-11-13T05:12:38.309Z,10.70
2022-11-13T05:15:07.602Z,10.70
2022-11-13T05:17:36.686Z,10.70
2022-11-13T05:20:05.375Z,10.60
2022-11-13T05:22:33.134Z,10.60
2022-11-13T05:25:00.865Z,10.60
2022-11-13T05:27:28.609Z,10.50
2022-11-13T05:29:56.364Z,10.50
2022-11-13T05:32:24.140Z,10.50
2022-11-13T05:34:53.254Z,10.50
2022-11-13T05:37:21.024Z,10.40
2022-11-13T05:39:48.802Z,10.40
2022-11-13T05:42:16.542Z,10.40
2022-11-13T05:44:44.312Z,10.40
2022-11-13T05:47:12.053Z,10.40
2022-11-13T05:49:39.835Z,10.30
2022-11-13T05:52:08.977Z,10.30
2022-11-13T05:54:37.008Z,10.30
2022-11-13T05:57:04.907Z,10.30
2022-11-13T05:59:32.736Z,10.20
2022-11-13T06:02:00.513Z,10.20
2022-11-13T06:04:28.310Z,10.20
2022-11-13T06:06:56.100Z,10.10
2022-11-13T06:09:25.288Z,10.10
2022-11-13T06:11:53.062Z,10.10
2022-11-13T06:14:20.761Z,10.10
2022-11-13T06:16:48.548Z,10.00
2022-11-13T06:19:16.404Z,10.00
2022-11-13T06:21:44.476Z,10.00
2022-11-13T06:24:13.745Z,10.00
2022-11-13T06:26:42.920Z,10.00
2022-11-13T06:29:12.910Z,10.00
2022-11-13T06:31:40.875Z,10.00
2022-11-13T06:34:08.810Z,10.00
2022-11-13T06:36:37.956Z,10.10
2022-11-13T06:39:08.509Z,10.10
2022-11-13T06:41:36.361Z,10.10
2022-11-13T06:44:05.800Z,10.10
2022-11-13T06:46:33.597Z,10.10
2022-11-13T06:49:01.416Z,10.20
2022-11-13T06:51:31.087Z,10.20
2022-11-13T06:53:59.051Z,10.20
2022-11-13T06:56:27.223Z,10.20
2022-11-13T06:58:55.817Z,10.20
2022-11-13T07:01:26.159Z,10.20
2022-11-13T07:03:54.084Z,10.20
2022-11-13T07:06:24.106Z,10.20
2022-11-13T07:08:52.557Z,10.30
2022-11-13T07:11:21.948Z,10.30
2022-11-13T07:13:50.595Z,10.40
2022-11-13T07:16:18.925Z,10.50
2022-11-13T07:18:52.333Z,10.60
2022-11-13T07:21:20.789Z,10.70
2022-11-13T07:23:49.067Z,10.80
2022-11-13T07:26:17.153Z,10.90
2022-11-13T07:28:44.943Z,11.10
2022-11-13T07:31:14.394Z,11.20
2022-11-13T07:33:43.426Z,11.30
2022-11-13T07:36:12.585Z,11.40
2022-11-13T07:38:40.371Z,11.50
2022-11-13T07:41:08.646Z,11.60
2022-11-13T07:43:36.447Z,11.80
2022-11-13T07:46:04.275Z,11.90
2022-11-13T07:48:32.425Z,12.10
2022-11-13T07:51:02.289Z,12.10
2022-11-13T07:53:32.062Z,12.30
2022-11-13T07:56:02.608Z,12.40
2022-11-13T07:58:31.254Z,12.50
2022-11-13T08:01:04.238Z,12.60
2022-11-13T08:03:32.865Z,12.80
2022-11-13T08:06:05.494Z,12.90
2022-11-13T08:08:35.683Z,13.00
2022-11-13T08:11:07.247Z,13.10
2022-11-13T08:13:35.509Z,13.20
2022-11-13T08:16:04.079Z,13.30
2022-11-13T08:18:32.897Z,13.30
2022-11-13T08:21:03.649Z,13.40
2022-11-13T08:23:31.739Z,13.50
2022-11-13T08:26:05.447Z,13.50
2022-11-13T08:28:33.705Z,13.60
2022-11-13T08:31:01.964Z,13.60
2022-11-13T08:33:30.063Z,13.70
2022-11-13T08:35:59.640Z,13.80
2022-11-13T08:38:28.637Z,13.90
2022-11-13T08:41:03.218Z,13.90
2022-11-13T08:43:35.132Z,14.00
2022-11-13T08:46:03.815Z,14.10
2022-11-13T08:48:31.904Z,14.30
2022-11-13T08:50:59.930Z,14.40
2022-11-13T08:53:27.864Z,14.60
2022-11-13T08:55:55.708Z,14.60
2022-11-13T08:58:24.923Z,14.70
2022-11-13T09:00:52.687Z,14.80
2022-11-13T09:03:20.517Z,14.90
2022-11-13T09:05:50.648Z,15.00
2022-11-13T09:08:18.376Z,15.10
2022-11-13T09:10:46.233Z,15.20
2022-11-13T09:13:14.014Z,15.30
2022-11-13T09:15:43.097Z,15.40
2022-11-13T09:18:11.658Z,15.50
2022-11-13T09:20:39.382Z,15.50
2022-11-13T09:23:09.163Z,15.70
2022-11-13T09:25:38.433Z,15.80
2022-11-13T09:28:07.021Z,15.80
2022-11-13T09:30:34.996Z,15.90
2022-11-13T09:33:04.547Z,16.00
2022-11-13T09:35:36.757Z,16.10
2022-11-13T09:38:11.652Z,16.30
2022-11-13T09:40:44.813Z,16.40
2022-11-13T09:43:24.507Z,16.50
2022-11-13T09:45:55.688Z,16.60
2022-11-13T09:48:32.885Z,16.70
2022-11-13T09:51:04.514Z,16.80
2022-11-13T09:53:38.587Z,16.80
2022-11-13T09:56:28.744Z,17.00
2022-11-13T09:59:04.396Z,17.10
2022-11-13T10:01:48.974Z,17.10
2022-11-13T10:04:25.844Z,17.10
2022-11-13T10:07:04.897Z,17.10
2022-11-13T10:09:41.812Z,17.10
2022-11-13T10:12:13.790Z,17.20
2022-11-13T10:14:45.963Z,17.30
2022-11-13T10:17:17.665Z,17.40
2022-11-13T10:19:56.875Z,17.40
2022-11-13T10:22:33.439Z,17.50
2022-11-13T10:25:10.448Z,17.70
2022-11-13T10:27:38.787Z,17.80
2022-11-13T10:30:13.910Z,17.70
2022-11-13T10:32:41.699Z,17.80
2022-11-13T10:35:38.147Z,17.80
2022-11-13T10:38:08.935Z,17.80
2022-11-13T10:40:38.659Z,17.80
2022-11-13T10:43:08.301Z,17.90
2022-11-13T10:45:36.095Z,18.00
2022-11-13T10:48:05.150Z,18.10
2022-11-13T10:50:35.507Z,18.30
2022-11-13T10:53:03.395Z,18.40
2022-11-13T10:55:38.801Z,18.60
2022-11-13T10:58:14.851Z,18.70
2022-11-13T11:00:47.306Z,18.80
2022-11-13T11:03:17.047Z,19.00
2022-11-13T11:05:58.156Z,19.20
2022-11-13T11:08:31.781Z,19.40
2022-11-13T11:11:19.225Z,19.50
2022-11-13T11:13:47.442Z,19.70
2022-11-13T11:16:21.222Z,19.80
2022-11-13T11:18:54.380Z,20.00
2022-11-13T11:21:27.561Z,20.10
2022-11-13T11:24:03.957Z,20.30
2022-11-13T11:26:36.097Z,20.50
2022-11-13T11:29:14.207Z,20.70
2022-11-13T11:31:48.298Z,20.80
2022-11-13T11:34:21.457Z,21.00
2022-11-13T11:37:06.765Z,21.30
2022-11-13T11:39:39.240Z,21.60
2022-11-13T11:42:16.417Z,21.90
2022-11-13T11:44:55.781Z,22.30
2022-11-13T11:47:23.714Z,22.60
2022-11-13T11:49:51.657Z,23.00
2022-11-13T11:52:33.951Z,23.30
2022-11-13T11:55:15.512Z,23.60
2022-11-13T11:57:51.746Z,23.70
2022-11-13T12:00:21.161Z,24.00
2022-11-13T12:03:34.348Z,24.30
2022-11-13T12:06:11.999Z,24.70
2022-11-13T12:08:49.108Z,24.90
2022-11-13T12:11:25.584Z,25.10
2022-11-13T12:14:03.487Z,25.40
2022-11-13T12:16:38.887Z,25.70
2022-11-13T12:19:12.610Z,26.30
2022-11-13T12:21:49.486Z,26.80
2022-11-13T12:24:42.702Z,27.40
2022-11-13T12:27:22.497Z,27.60
2022-11-13T12:30:03.088Z,28.00
2022-11-13T12:32:43.540Z,28.50
2022-11-13T12:35:14.859Z,29.00
2022-11-13T12:37:49.136Z,29.60
2022-11-13T12:40:27.565Z,30.30
2022-11-13T12:43:08.295Z,30.90
2022-11-13T12:45:50.309Z,31.20
2022-11-13T12:48:33.637Z,31.80
2022-11-13T12:51:03.598Z,32.70
2022-11-13T12:53:34.843Z,33.30
2022-11-13T12:56:04.655Z,34.00
2022-11-13T12:58:33.736Z,34.40
2022-11-13T13:01:07.306Z,34.70
2022-11-13T13:03:50.709Z,35.00
2022-11-13T13:06:35.767Z,35.30
2022-11-13T13:09:28.315Z,35.60
2022-11-13T13:12:05.485Z,35.70
2022-11-13T13:15:02.534Z,36.00
2022-11-13T13:17:30.516Z,36.10
2022-11-13T13:20:00.190Z,36.10
2022-11-13T13:22:30.193Z,36.30
2022-11-13T13:25:03.661Z,36.50
2022-11-13T13:27:38.490Z,36.60
2022-11-13T13:30:21.420Z,36.20
2022-11-13T13:33:00.104Z,36.30
2022-11-13T13:35:33.838Z,36.10
2022-11-13T13:38:10.189Z,36.30
2022-11-13T13:40:53.775Z,36.30
2022-11-13T13:43:38.431Z,36.40
2022-11-13T13:46:13.833Z,36.20
2022-11-13T13:48:44.347Z,36.00
2022-11-13T13:51:20.902Z,36.00
2022-11-13T13:53:50.158Z,35.80
2022-11-13T13:56:18.706Z,35.60
2022-11-13T13:58:48.235Z,34.70
2022-11-13T14:01:26.480Z,33.20
2022-11-13T14:04:05.719Z,32.60
2022-11-13T14:06:34.182Z,32.70
2022-11-13T14:09:09.800Z,32.40
2022-11-13T14:11:37.535Z,31.50
2022-11-13T14:14:10.921Z,30.60
2022-11-13T14:16:48.690Z,29.80
2022-11-13T14:19:16.432Z,29.60
2022-11-13T14:21:45.448Z,29.80
2022-11-13T14:24:20.523Z,29.70
2022-11-13T14:26:48.892Z,29.20
2022-11-13T14:29:33.711Z,28.90
2022-11-13T14:32:06.642Z,28.60
2022-11-13T14:34:35.406Z,28.20
2022-11-13T14:37:17.974Z,27.70
2022-11-13T14:39:47.756Z,27.30
2022-11-13T14:42:19.466Z,26.80
2022-11-13T14:44:49.342Z,26.50
2022-11-13T14:47:26.087Z,26.10
2022-11-13T14:49:54.237Z,25.70
2022-11-13T14:52:26.671Z,25.40
2022-11-13T14:55:21.522Z,25.10
2022-11-13T14:57:49.823Z,24.80
2022-11-13T15:00:20.747Z,24.40
2022-11-13T15:02:48.508Z,24.10
2022-11-13T15:05:16.455Z,23.80
2022-11-13T15:07:46.719Z,23.50
2022-11-13T15:10:17.455Z,23.10
2022-11-13T15:12:45.295Z,22.80
2022-11-13T15:15:16.283Z,22.60
2022-11-13T15:17:46.277Z,22.30
2022-11-13T15:20:18.245Z,22.00
2022-11-13T15:22:46.091Z,21.90
2022-11-13T15:25:15.703Z,21.70
2022-11-13T15:27:43.878Z,21.50
2022-11-13T15:30:13.003Z,21.30
2022-11-13T15:32:41.014Z,21.20
2022-11-13T15:35:14.921Z,21.00
2022-11-13T15:37:42.746Z,20.90
2022-11-13T15:40:17.529Z,20.80
2022-11-13T15:42:46.590Z,20.60
2022-11-13T15:45:16.836Z,20.40
2022-11-13T15:47:44.812Z,20.30
2022-11-13T15:50:15.891Z,20.10
2022-11-13T15:52:47.097Z,20.00
2022-11-13T15:55:21.985Z,19.90
2022-11-13T15:57:50.480Z,19.80
2022-11-13T16:00:24.849Z,19.80
2022-11-13T16:02:55.561Z,19.70
2022-11-13T16:05:26.533Z,19.60
2022-11-13T16:07:54.639Z,19.60
2022-11-13T16:10:24.757Z,19.50
2022-11-13T16:12:52.751Z,19.30
2022-11-13T16:15:21.361Z,19.20
2022-11-13T16:17:52.858Z,19.20
2022-11-13T16:20:20.755Z,19.10
2022-11-13T16:22:50.095Z,19.00
2022-11-13T16:25:19.577Z,18.90
2022-11-13T16:27:47.891Z,18.70
2022-11-13T16:30:17.099Z,18.60
2022-11-13T16:32:44.894Z,18.40
2022-11-13T16:35:16.342Z,18.30
2022-11-13T16:37:44.632Z,18.20
2022-11-13T16:40:20.898Z,18.20
2022-11-13T16:42:49.023Z,18.10
2022-11-13T16:45:17.010Z,18.10
2022-11-13T16:47:44.938Z,18.00
2022-11-13T16:50:15.716Z,17.90
2022-11-13T16:52:43.566Z,17.80
2022-11-13T16:55:11.429Z,17.70
2022-11-13T16:57:41.189Z,17.60
2022-11-13T17:00:13.389Z,17.60
2022-11-13T17:02:41.793Z,17.40
2022-11-13T17:05:13.653Z,17.40
2022-11-13T17:07:41.485Z,17.40
2022-11-13T17:13:02.392Z,17.20
2022-11-13T17:15:30.634Z,17.00
2022-11-13T17:17:59.231Z,17.00
2022-11-13T17:20:27.709Z,16.90
2022-11-13T17:22:55.964Z,16.80
2022-11-13T17:25:26.409Z,16.70
2022-11-13T17:27:54.289Z,16.70
2022-11-13T17:30:23.789Z,16.60
2022-11-13T17:32:51.567Z,16.60
2022-11-13T17:35:19.326Z,16.50
2022-11-13T17:37:47.088Z,16.50
2022-11-13T17:40:14.889Z,16.40
2022-11-13T17:42:44.826Z,16.30
2022-11-13T17:45:12.568Z,16.30
2022-11-13T17:47:41.689Z,16.30
2022-11-13T17:50:09.899Z,16.30
2022-11-13T17:52:37.725Z,16.20
2022-11-13T17:55:12.744Z,16.20
2022-11-13T17:57:43.367Z,16.20
2022-11-13T18:00:13.917Z,16.10
2022-11-13T18:02:43.163Z,16.20
2022-11-13T18:05:10.920Z,16.10
2022-11-13T18:07:39.997Z,16.00
2022-11-13T18:10:09.179Z,16.00
2022-11-13T18:12:37.329Z,15.90
2022-11-13T18:15:05.675Z,15.80
2022-11-13T18:17:33.895Z,15.80
2022-11-13T18:20:03.288Z,15.70
2022-11-13T18:22:31.478Z,15.60
2022-11-13T18:24:59.245Z,15.50
2022-11-13T18:27:27.114Z,15.40
2022-11-13T18:29:55.127Z,15.30
2022-11-13T18:32:22.887Z,15.30
2022-11-13T18:34:52.625Z,15.30
2022-11-13T18:37:21.980Z,15.20
2022-11-13T18:39:50.185Z,15.20
2022-11-13T18:42:17.938Z,15.20
2022-11-13T18:44:45.672Z,15.20
2022-11-13T18:47:13.453Z,15.20
2022-11-13T18:49:41.217Z,15.10
2022-11-13T18:52:09.182Z,15.10
2022-11-13T18:54:38.285Z,15.10
2022-11-13T18:57:06.059Z,15.10
2022-11-13T18:59:34.224Z,15.10
2022-11-13T19:02:02.390Z,15.10
2022-11-13T19:04:30.265Z,15.10
2022-11-13T19:06:58.526Z,15.00
2022-11-13T19:09:26.419Z,15.00
2022-11-13T19:11:56.449Z,15.00
2022-11-13T19:14:24.202Z,14.90
2022-11-13T19:16:52.110Z,14.80
2022-11-13T19:19:21.568Z,14.80
2022-11-13T19:21:49.616Z,14.80
2022-11-13T19:24:17.759Z,14.80
2022-11-13T19:26:46.469Z,14.70
2022-11-13T19:29:15.644Z,14.70
2022-11-13T19:31:45.208Z,14.70
2022-11-13T19:34:13.346Z,14.70
2022-11-13T19:36:41.427Z,14.60
2022-11-13T19:39:09.647Z,14.60
2022-11-13T19:41:37.450Z,14.60
2022-11-13T19:44:06.421Z,14.50
2022-11-13T19:46:39.539Z,14.50
2022-11-13T19:49:07.960Z,14.50
2022-11-13T19:51:35.806Z,14.50
2022-11-13T19:54:03.805Z,14.50
2022-11-13T19:56:31.588Z,14.40
2022-11-13T19:58:59.353Z,14.40
2022-11-13T20:01:29.467Z,14.40
2022-11-13T20:04:00.884Z,14.40
2022-11-13T20:06:30.262Z,14.40
2022-11-13T20:08:59.567Z,14.40
2022-11-13T20:11:27.773Z,14.40
2022-11-13T20:13:58.198Z,14.40
2022-11-13T20:16:26.059Z,14.40
2022-11-13T20:18:59.156Z,14.40
2022-11-13T20:21:31.287Z,14.50
2022-11-13T20:24:00.527Z,14.40
2022-11-13T20:26:29.659Z,14.40
2022-11-13T20:28:57.603Z,14.50
2022-11-13T20:31:27.607Z,14.50
2022-11-13T20:33:56.844Z,14.50
2022-11-13T20:36:26.300Z,14.50
2022-11-13T20:38:56.809Z,14.50
2022-11-13T20:41:25.422Z,14.50
2022-11-13T20:43:55.607Z,14.50
2022-11-13T20:46:23.549Z,14.50
2022-11-13T20:48:51.627Z,14.40
2022-11-13T20:51:21.148Z,14.40
2022-11-13T20:53:50.890Z,14.40
2022-11-13T20:56:19.648Z,14.40
2022-11-13T20:58:47.695Z,14.40
2022-11-13T21:01:17.185Z,14.40
2022-11-13T21:03:46.144Z,14.30
2022-11-13T21:06:16.201Z,14.30
2022-11-13T21:08:44.676Z,14.20
2022-11-13T21:11:18.786Z,14.20
2022-11-13T21:13:48.875Z,14.10
2022-11-13T21:16:18.029Z,14.10
2022-11-13T21:18:46.246Z,14.00
2022-11-13T21:21:16.944Z,14.00
2022-11-13T21:23:44.687Z,13.90
2022-11-13T21:26:14.321Z,13.90
2022-11-13T21:28:44.053Z,13.90
2022-11-13T21:31:20.569Z,13.90
2022-11-13T21:33:49.200Z,13.90
2022-11-13T21:36:20.862Z,13.90
2022-11-13T21:38:52.439Z,13.90
2022-11-13T21:41:23.722Z,13.80
2022-11-13T21:43:56.782Z,13.80
2022-11-13T21:46:27.036Z,13.80
2022-11-13T21:48:59.873Z,13.70
2022-11-13T21:51:28.023Z,13.70
2022-11-13T21:53:55.929Z,13.70
2022-11-13T21:56:26.199Z,13.70
2022-11-13T21:58:55.622Z,13.60
2022-11-13T22:01:24.091Z,13.60
2022-11-13T22:03:52.361Z,13.60
2022-11-13T22:06:22.434Z,13.50
2022-11-13T22:08:56.537Z,13.50
2022-11-13T22:11:26.923Z,13.50
2022-11-13T22:13:55.381Z,13.50
2022-11-13T22:16:24.001Z,13.40
2022-11-13T22:18:54.669Z,13.40
2022-11-13T22:21:23.257Z,13.40
2022-11-13T22:23:51.445Z,13.40
2022-11-13T22:26:20.052Z,13.40
2022-11-13T22:28:50.023Z,13.40
2022-11-13T22:31:20.705Z,13.40
2022-11-13T22:33:52.496Z,13.40
2022-11-13T22:36:24.042Z,13.40
2022-11-13T22:38:51.829Z,13.50
2022-11-13T22:41:23.626Z,13.40
2022-11-13T22:43:54.894Z,13.40
2022-11-13T22:46:24.928Z,13.40
2022-11-13T22:48:54.393Z,13.40
2022-11-13T22:51:24.261Z,13.30
2022-11-13T22:53:54.105Z,13.30
2022-11-13T22:56:26.117Z,13.30
2022-11-13T22:58:56.756Z,13.30
2022-11-13T23:01:26.310Z,13.30
2022-11-13T23:03:55.126Z,13.30
2022-11-13T23:06:24.940Z,13.30
2022-11-13T23:08:52.863Z,13.30
2022-11-13T23:11:22.520Z,13.30
2022-11-13T23:13:52.127Z,13.30
2022-11-13T23:16:22.559Z,13.20
2022-11-13T23:18:51.201Z,13.20
2022-11-13T23:21:19.313Z,13.10
2022-11-13T23:23:47.243Z,13.10
2022-11-13T23:26:16.281Z,13.10
2022-11-13T23:28:44.233Z,13.00
2022-11-13T23:31:12.589Z,13.00
2022-11-13T23:33:41.699Z,12.90
2022-11-13T23:36:11.375Z,12.90
2022-11-13T23:38:39.261Z,12.90
2022-11-13T23:41:07.478Z,12.90
2022-11-13T23:44:07.237Z,12.90
2022-11-13T23:46:23.010Z,12.80
2022-11-13T23:48:52.144Z,12.80
2022-11-13T23:51:19.901Z,12.80
2022-11-13T23:53:47.715Z,12.80
2022-11-13T23:56:15.474Z,12.80
2022-11-13T23:58:43.247Z,12.80
